createdAt,value
2023-02-16T00:07:13.251Z,45.877
2023-02-16T00:22:15.645Z,47.835
2023-02-16T00:37:17.915Z,46.795
2023-02-16T00:52:20.484Z,44.437
2023-02-16T01:07:22.804Z,48.248
2023-02-16T01:22:25.357Z,49.268
2023-02-16T01:37:28.252Z,49.44
2023-02-16T01:52:30.967Z,51.214
2023-02-16T02:07:33.300Z,50.867
2023-02-16T02:22:35.980Z,50.593
2023-02-16T02:37:38.364Z,52.707
2023-02-16T02:52:42.090Z,52.743
2023-02-16T03:07:44.792Z,53.062
2023-02-16T03:22:47.529Z,54.732
2023-02-16T03:37:49.874Z,53.277
2023-02-16T03:52:52.136Z,55.33
2023-02-16T04:07:54.428Z,55.576
2023-02-16T04:22:56.680Z,57.181
2023-02-16T04:37:58.883Z,58.104
2023-02-16T04:53:01.147Z,57.853
2023-02-16T05:08:03.392Z,58.224
2023-02-16T05:23:05.757Z,56.782
2023-02-16T05:38:08.002Z,57.817
2023-02-16T05:53:10.874Z,57.418
2023-02-16T06:08:13.272Z,57.986
2023-02-16T06:23:15.518Z,58.217
2023-02-16T06:38:17.731Z,59.626
2023-02-16T06:53:20.164Z,58.618
2023-02-16T07:08:22.811Z,59.48
2023-02-16T07:23:25.061Z,59.471
2023-02-16T07:38:27.562Z,59.527
2023-02-16T07:53:29.999Z,61.054
2023-02-16T08:08:32.309Z,59.903
2023-02-16T08:23:34.419Z,59.367
2023-02-16T08:38:36.806Z,58.906
2023-02-16T08:53:39.005Z,59.923
2023-02-16T09:08:41.268Z,59.729
2023-02-16T09:23:44.790Z,60.068
2023-02-16T09:38:47.300Z,60.241
2023-02-16T09:53:49.708Z,60.166
2023-02-16T10:08:52.061Z,60.288
2023-02-16T10:23:54.402Z,61.125
2023-02-16T10:38:56.602Z,61.245
2023-02-16T10:53:58.862Z,60.829
2023-02-16T11:09:01.490Z,60.398
2023-02-16T11:24:03.710Z,59.915
2023-02-16T11:39:05.911Z,60.92
2023-02-16T11:54:08.161Z,59.539
2023-02-16T12:09:10.365Z,59.01
2023-02-16T12:24:13.911Z,59.784
2023-02-16T12:39:16.366Z,61.875
2023-02-16T12:54:18.572Z,64.426
2023-02-16T13:09:20.848Z,62.477
2023-02-16T13:24:23.092Z,61
2023-02-16T13:39:25.332Z,60.782
2023-02-16T13:54:27.562Z,60.277
2023-02-16T14:09:29.819Z,59.513
2023-02-16T14:24:32.090Z,60.792
2023-02-16T14:39:36.420Z,61.27
2023-02-16T14:54:46.167Z,62.408
2023-02-16T15:09:48.461Z,61.696
2023-02-16T15:24:50.673Z,61.7
2023-02-16T15:40:15.048Z,61.415
2023-02-16T15:55:26.408Z,61.168
2023-02-16T16:10:28.648Z,60.042
2023-02-16T16:25:30.948Z,61.2
2023-02-16T16:40:33.205Z,62.421
2023-02-16T16:55:35.439Z,61.784
2023-02-16T17:10:37.721Z,61.573
2023-02-16T17:25:40.021Z,60.602
2023-02-16T17:40:42.294Z,60.873
2023-02-16T17:55:44.514Z,59.927
2023-02-16T18:10:46.767Z,58.401
2023-02-16T18:25:48.973Z,57.752
2023-02-16T18:40:51.317Z,58.479
2023-02-16T18:55:53.583Z,56.864
2023-02-16T19:10:56.068Z,53.481
2023-02-16T19:25:58.420Z,55.228
2023-02-16T19:41:00.612Z,53.973
2023-02-16T19:56:02.983Z,52.267
2023-02-16T20:11:05.422Z,50.434
2023-02-16T20:26:07.730Z,50.214
2023-02-16T20:41:10.097Z,49.012
2023-02-16T20:56:12.413Z,51.702
2023-02-16T21:11:14.766Z,53.549
2023-02-16T21:26:16.989Z,52.163
2023-02-16T21:41:19.281Z,50.929
2023-02-16T21:56:21.490Z,49.468
2023-02-16T22:11:23.806Z,49.949
2023-02-16T22:26:26.098Z,48.592
2023-02-16T22:41:28.338Z,50.831
2023-02-16T22:56:30.640Z,51.434
2023-02-16T23:11:32.898Z,45.316
2023-02-16T23:26:35.288Z,50.211
2023-02-16T23:41:37.496Z,50.988
2023-02-16T23:56:39.741Z,45.941
